sensor_id;sensor_type;location;lat;lon;timestamp;pressure;altitude;pressure_sealevel;temperature;humidity
84049;BME280;74136;51.684;7.862;2023-12-04T00:01:21;100937.94;;;-0.95;83.36
84049;BME280;74136;51.684;7.862;2023-12-04T00:03:46;100934.25;;;-0.94;83.54
84049;BME280;74136;51.684;7.862;2023-12-04T00:06:12;100935.09;;;-0.94;83.26
84049;BME280;74136;51.684;7.862;2023-12-04T00:08:38;100927.00;;;-0.94;83.59
84049;BME280;74136;51.684;7.862;2023-12-04T00:11:05;100927.00;;;-0.94;82.64
84049;BME280;74136;51.684;7.862;2023-12-04T00:13:30;100921.59;;;-0.94;83.43
84049;BME280;74136;51.684;7.862;2023-12-04T00:15:55;100912.47;;;-0.93;83.03
84049;BME280;74136;51.684;7.862;2023-12-04T00:18:21;100915.03;;;-0.91;82.94
84049;BME280;74136;51.684;7.862;2023-12-04T00:20:46;100904.75;;;-0.88;82.69
84049;BME280;74136;51.684;7.862;2023-12-04T00:23:11;100900.75;;;-0.84;82.27
84049;BME280;74136;51.684;7.862;2023-12-04T00:25:37;100898.91;;;-0.83;82.43
84049;BME280;74136;51.684;7.862;2023-12-04T00:28:02;100895.34;;;-0.84;82.11
84049;BME280;74136;51.684;7.862;2023-12-04T00:30:28;100892.50;;;-0.82;82.34
84049;BME280;74136;51.684;7.862;2023-12-04T00:32:53;100892.50;;;-0.82;82.70
84049;BME280;74136;51.684;7.862;2023-12-04T00:35:18;100886.25;;;-0.83;82.39
84049;BME280;74136;51.684;7.862;2023-12-04T00:37:44;100882.53;;;-0.82;81.58
84049;BME280;74136;51.684;7.862;2023-12-04T00:40:09;100881.53;;;-0.81;82.17
84049;BME280;74136;51.684;7.862;2023-12-04T00:42:35;100875.13;;;-0.80;81.85
84049;BME280;74136;51.684;7.862;2023-12-04T00:45:01;100868.22;;;-0.74;81.21
84049;BME280;74136;51.684;7.862;2023-12-04T00:47:26;100862.53;;;-0.71;80.68
84049;BME280;74136;51.684;7.862;2023-12-04T00:49:52;100866.63;;;-0.67;80.20
84049;BME280;74136;51.684;7.862;2023-12-04T00:52:17;100867.28;;;-0.65;79.80
84049;BME280;74136;51.684;7.862;2023-12-04T00:54:42;100860.56;;;-0.61;78.39
84049;BME280;74136;51.684;7.862;2023-12-04T00:57:08;100858.41;;;-0.57;78.71
84049;BME280;74136;51.684;7.862;2023-12-04T00:59:33;100859.41;;;-0.58;79.03
84049;BME280;74136;51.684;7.862;2023-12-04T01:01:58;100866.34;;;-0.56;79.55
84049;BME280;74136;51.684;7.862;2023-12-04T01:04:24;100859.09;;;-0.55;79.47
84049;BME280;74136;51.684;7.862;2023-12-04T01:06:49;100855.38;;;-0.54;78.47
84049;BME280;74136;51.684;7.862;2023-12-04T01:09:14;100860.47;;;-0.51;78.57
84049;BME280;74136;51.684;7.862;2023-12-04T01:11:40;100844.09;;;-0.50;78.16
84049;BME280;74136;51.684;7.862;2023-12-04T01:14:06;100858.16;;;-0.46;78.65
84049;BME280;74136;51.684;7.862;2023-12-04T01:16:31;100848.84;;;-0.44;77.50
84049;BME280;74136;51.684;7.862;2023-12-04T01:18:57;100848.38;;;-0.39;77.74
84049;BME280;74136;51.684;7.862;2023-12-04T01:21:22;100842.81;;;-0.38;78.25
84049;BME280;74136;51.684;7.862;2023-12-04T01:23:47;100830.31;;;-0.39;78.13
84049;BME280;74136;51.684;7.862;2023-12-04T01:26:13;100831.84;;;-0.36;77.20
84049;BME280;74136;51.684;7.862;2023-12-04T01:28:38;100824.44;;;-0.34;77.69
84049;BME280;74136;51.684;7.862;2023-12-04T01:31:04;100828.28;;;-0.37;77.44
84049;BME280;74136;51.684;7.862;2023-12-04T01:33:30;100824.44;;;-0.34;76.38
84049;BME280;74136;51.684;7.862;2023-12-04T01:35:55;100821.38;;;-0.31;76.00
84049;BME280;74136;51.684;7.862;2023-12-04T01:38:20;100817.66;;;-0.30;76.56
84049;BME280;74136;51.684;7.862;2023-12-04T01:40:46;100805.69;;;-0.27;75.10
84049;BME280;74136;51.684;7.862;2023-12-04T01:43:11;100816.03;;;-0.23;74.59
84049;BME280;74136;51.684;7.862;2023-12-04T01:45:36;100808.78;;;-0.22;75.00
84049;BME280;74136;51.684;7.862;2023-12-04T01:48:03;100809.28;;;-0.19;74.70
84049;BME280;74136;51.684;7.862;2023-12-04T01:50:33;100809.97;;;-0.17;74.77
84049;BME280;74136;51.684;7.862;2023-12-04T01:52:59;100802.84;;;-0.18;75.24
84049;BME280;74136;51.684;7.862;2023-12-04T01:55:26;100803.72;;;-0.17;74.43
84049;BME280;74136;51.684;7.862;2023-12-04T01:57:53;100797.28;;;-0.16;74.31
84049;BME280;74136;51.684;7.862;2023-12-04T02:00:19;100791.88;;;-0.16;74.10
84049;BME280;74136;51.684;7.862;2023-12-04T02:02:46;100786.47;;;-0.16;74.06
84049;BME280;74136;51.684;7.862;2023-12-04T02:05:12;100784.63;;;-0.16;74.26
84049;BME280;74136;51.684;7.862;2023-12-04T02:07:40;100785.31;;;-0.14;74.30
84049;BME280;74136;51.684;7.862;2023-12-04T02:10:06;100783.59;;;-0.15;74.42
84049;BME280;74136;51.684;7.862;2023-12-04T02:12:32;100781.59;;;-0.13;75.14
84049;BME280;74136;51.684;7.862;2023-12-04T02:14:58;100776.19;;;-0.13;73.85
84049;BME280;74136;51.684;7.862;2023-12-04T02:17:24;100767.22;;;-0.13;74.10
84049;BME280;74136;51.684;7.862;2023-12-04T02:19:50;100765.00;;;-0.10;73.40
84049;BME280;74136;51.684;7.862;2023-12-04T02:22:16;100760.47;;;-0.09;74.38
84049;BME280;74136;51.684;7.862;2023-12-04T02:24:44;100759.81;;;-0.11;74.00
84049;BME280;74136;51.684;7.862;2023-12-04T02:27:17;100755.56;;;-0.14;73.34
84049;BME280;74136;51.684;7.862;2023-12-04T02:29:53;100759.28;;;-0.15;73.94
84049;BME280;74136;51.684;7.862;2023-12-04T02:32:23;100753.88;;;-0.15;72.79
84049;BME280;74136;51.684;7.862;2023-12-04T02:34:50;100753.88;;;-0.15;72.99
84049;BME280;74136;51.684;7.862;2023-12-04T02:37:17;100741.34;;;-0.16;73.46
84049;BME280;74136;51.684;7.862;2023-12-04T02:39:43;100750.63;;;-0.18;73.26
84049;BME280;74136;51.684;7.862;2023-12-04T02:42:08;100747.06;;;-0.19;73.01
84049;BME280;74136;51.684;7.862;2023-12-04T02:44:34;100739.66;;;-0.17;72.18
84049;BME280;74136;51.684;7.862;2023-12-04T02:47:00;100753.53;;;-0.12;71.60
84049;BME280;74136;51.684;7.862;2023-12-04T02:49:25;100736.28;;;-0.11;72.10
84049;BME280;74136;51.684;7.862;2023-12-04T02:51:50;100735.47;;;-0.11;72.73
84049;BME280;74136;51.684;7.862;2023-12-04T02:54:15;100737.66;;;-0.07;70.19
84049;BME280;74136;51.684;7.862;2023-12-04T02:56:41;100734.63;;;-0.04;70.13
84049;BME280;74136;51.684;7.862;2023-12-04T02:59:06;100732.78;;;-0.03;71.23
84049;BME280;74136;51.684;7.862;2023-12-04T03:01:32;100726.66;;;-0.05;71.61
84049;BME280;74136;51.684;7.862;2023-12-04T03:03:57;100724.97;;;-0.06;70.64
84049;BME280;74136;51.684;7.862;2023-12-04T03:06:22;100723.13;;;-0.06;70.26
84049;BME280;74136;51.684;7.862;2023-12-04T03:08:48;100715.00;;;-0.06;71.20
84049;BME280;74136;51.684;7.862;2023-12-04T03:11:13;100708.06;;;-0.08;70.05
84049;BME280;74136;51.684;7.862;2023-12-04T03:13:38;100704.50;;;-0.09;70.94
84049;BME280;74136;51.684;7.862;2023-12-04T03:16:04;100706.19;;;-0.08;70.25
84049;BME280;74136;51.684;7.862;2023-12-04T03:18:29;100700.63;;;-0.06;70.02
84049;BME280;74136;51.684;7.862;2023-12-04T03:20:55;100695.38;;;-0.08;70.19
84049;BME280;74136;51.684;7.862;2023-12-04T03:23:20;100688.28;;;-0.09;69.85
84049;BME280;74136;51.684;7.862;2023-12-04T03:25:46;100683.56;;;-0.07;69.48
84049;BME280;74136;51.684;7.862;2023-12-04T03:28:11;100683.38;;;-0.05;69.25
84049;BME280;74136;51.684;7.862;2023-12-04T03:30:38;100683.75;;;0.00;68.15
84049;BME280;74136;51.684;7.862;2023-12-04T03:33:03;100680.69;;;0.03;68.55
84049;BME280;74136;51.684;7.862;2023-12-04T03:35:29;100675.97;;;0.05;68.01
84049;BME280;74136;51.684;7.862;2023-12-04T03:37:54;100679.53;;;0.06;68.69
84049;BME280;74136;51.684;7.862;2023-12-04T03:40:19;100681.22;;;0.07;68.37
84049;BME280;74136;51.684;7.862;2023-12-04T03:42:45;100679.34;;;0.07;68.95
84049;BME280;74136;51.684;7.862;2023-12-04T03:45:10;100665.66;;;0.09;68.99
84049;BME280;74136;51.684;7.862;2023-12-04T03:47:36;100663.97;;;0.08;68.49
84049;BME280;74136;51.684;7.862;2023-12-04T03:50:01;100672.09;;;0.08;68.46
84049;BME280;74136;51.684;7.862;2023-12-04T03:52:26;100671.94;;;0.09;67.50
84049;BME280;74136;51.684;7.862;2023-12-04T03:54:52;100660.94;;;0.11;67.62
84049;BME280;74136;51.684;7.862;2023-12-04T03:57:17;100663.97;;;0.16;67.01
84049;BME280;74136;51.684;7.862;2023-12-04T03:59:43;100658.06;;;0.20;67.62
84049;BME280;74136;51.684;7.862;2023-12-04T04:02:09;100655.38;;;0.20;67.58
84049;BME280;74136;51.684;7.862;2023-12-04T04:04:34;100659.25;;;0.26;67.13
84049;BME280;74136;51.684;7.862;2023-12-04T04:06:59;100647.41;;;0.27;66.53
84049;BME280;74136;51.684;7.862;2023-12-04T04:09:25;100650.63;;;0.30;66.30
84049;BME280;74136;51.684;7.862;2023-12-04T04:11:50;100641.66;;;0.30;65.82
84049;BME280;74136;51.684;7.862;2023-12-04T04:14:15;100645.38;;;0.29;68.55
84049;BME280;74136;51.684;7.862;2023-12-04T04:16:41;100646.03;;;0.23;68.23
84049;BME280;74136;51.684;7.862;2023-12-04T04:19:06;100629.16;;;0.21;66.63
84049;BME280;74136;51.684;7.862;2023-12-04T04:21:31;100632.72;;;0.21;67.73
84049;BME280;74136;51.684;7.862;2023-12-04T04:23:57;100630.31;;;0.18;68.18
84049;BME280;74136;51.684;7.862;2023-12-04T04:26:22;100632.03;;;0.19;67.86
84049;BME280;74136;51.684;7.862;2023-12-04T04:28:47;100630.00;;;0.21;67.58
84049;BME280;74136;51.684;7.862;2023-12-04T04:31:13;100630.66;;;0.23;67.22
84049;BME280;74136;51.684;7.862;2023-12-04T04:33:38;100622.38;;;0.25;66.83
84049;BME280;74136;51.684;7.862;2023-12-04T04:36:04;100620.84;;;0.30;65.98
84049;BME280;74136;51.684;7.862;2023-12-04T04:38:29;100615.94;;;0.34;65.50
84049;BME280;74136;51.684;7.862;2023-12-04T04:40:55;100606.81;;;0.35;66.23
84049;BME280;74136;51.684;7.862;2023-12-04T04:43:20;100606.13;;;0.41;65.05
84049;BME280;74136;51.684;7.862;2023-12-04T04:45:46;100610.53;;;0.42;66.44
84049;BME280;74136;51.684;7.862;2023-12-04T04:48:11;100609.00;;;0.40;67.16
84049;BME280;74136;51.684;7.862;2023-12-04T04:50:37;100608.00;;;0.41;66.08
84049;BME280;74136;51.684;7.862;2023-12-04T04:53:02;100603.44;;;0.41;67.85
84049;BME280;74136;51.684;7.862;2023-12-04T04:55:27;100607.81;;;0.42;65.73
84049;BME280;74136;51.684;7.862;2023-12-04T04:57:53;100602.91;;;0.46;66.80
84049;BME280;74136;51.684;7.862;2023-12-04T05:02:43;100590.56;;;0.51;64.82
84049;BME280;74136;51.684;7.862;2023-12-04T05:05:11;100579.34;;;0.62;62.01
84049;BME280;74136;51.684;7.862;2023-12-04T05:07:36;100581.38;;;0.68;64.12
84049;BME280;74136;51.684;7.862;2023-12-04T05:10:02;100578.81;;;0.67;63.60
84049;BME280;74136;51.684;7.862;2023-12-04T05:12:27;100578.34;;;0.63;62.92
84049;BME280;74136;51.684;7.862;2023-12-04T05:14:53;100578.50;;;0.62;62.98
84049;BME280;74136;51.684;7.862;2023-12-04T05:17:18;100580.03;;;0.64;63.13
84049;BME280;74136;51.684;7.862;2023-12-04T05:19:43;100576.47;;;0.64;64.15
84049;BME280;74136;51.684;7.862;2023-12-04T05:22:09;100576.81;;;0.61;64.72
84049;BME280;74136;51.684;7.862;2023-12-04T05:24:34;100579.69;;;0.59;64.70
84049;BME280;74136;51.684;7.862;2023-12-04T05:27:01;100570.41;;;0.54;64.60
84049;BME280;74136;51.684;7.862;2023-12-04T05:29:27;100573.63;;;0.49;64.46
84049;BME280;74136;51.684;7.862;2023-12-04T05:31:52;100564.81;;;0.47;64.18
84049;BME280;74136;51.684;7.862;2023-12-04T05:34:18;100558.56;;;0.47;63.02
84049;BME280;74136;51.684;7.862;2023-12-04T05:36:43;100565.66;;;0.48;64.01
84049;BME280;74136;51.684;7.862;2023-12-04T05:39:08;100558.44;;;0.40;64.98
84049;BME280;74136;51.684;7.862;2023-12-04T05:41:34;100558.25;;;0.42;63.49
84049;BME280;74136;51.684;7.862;2023-12-04T05:43:59;100555.03;;;0.38;64.90
84049;BME280;74136;51.684;7.862;2023-12-04T05:46:24;100552.84;;;0.42;64.40
84049;BME280;74136;51.684;7.862;2023-12-04T05:48:50;100555.19;;;0.45;63.26
84049;BME280;74136;51.684;7.862;2023-12-04T05:51:15;100543.72;;;0.43;62.67
84049;BME280;74136;51.684;7.862;2023-12-04T05:53:41;100554.69;;;0.41;63.68
84049;BME280;74136;51.684;7.862;2023-12-04T05:56:06;100558.59;;;0.39;62.82
84049;BME280;74136;51.684;7.862;2023-12-04T05:58:34;100550.81;;;0.35;64.89
84049;BME280;74136;51.684;7.862;2023-12-04T06:00:59;100546.59;;;0.33;63.86
84049;BME280;74136;51.684;7.862;2023-12-04T06:03:25;100545.75;;;0.32;63.89
84049;BME280;74136;51.684;7.862;2023-12-04T06:05:50;100545.25;;;0.29;63.97
84049;BME280;74136;51.684;7.862;2023-12-04T06:08:16;100546.59;;;0.25;64.18
84049;BME280;74136;51.684;7.862;2023-12-04T06:10:41;100542.03;;;0.25;63.80
84049;BME280;74136;51.684;7.862;2023-12-04T06:13:06;100537.47;;;0.26;63.82
84049;BME280;74136;51.684;7.862;2023-12-04T06:15:32;100533.06;;;0.25;64.25
84049;BME280;74136;51.684;7.862;2023-12-04T06:17:57;100536.13;;;0.30;63.58
84049;BME280;74136;51.684;7.862;2023-12-04T06:20:22;100538.81;;;0.30;63.28
84049;BME280;74136;51.684;7.862;2023-12-04T06:22:48;100543.88;;;0.25;64.28
84049;BME280;74136;51.684;7.862;2023-12-04T06:25:14;100556.09;;;0.21;64.47
84049;BME280;74136;51.684;7.862;2023-12-04T06:27:40;100548.97;;;0.20;63.40
84049;BME280;74136;51.684;7.862;2023-12-04T06:30:06;100544.06;;;0.15;65.31
84049;BME280;74136;51.684;7.862;2023-12-04T06:32:32;100545.94;;;0.15;64.57
84049;BME280;74136;51.684;7.862;2023-12-04T06:34:57;100545.44;;;0.19;64.51
84049;BME280;74136;51.684;7.862;2023-12-04T06:37:23;100555.41;;;0.19;65.04
84049;BME280;74136;51.684;7.862;2023-12-04T06:39:49;100557.44;;;0.17;64.44
84049;BME280;74136;51.684;7.862;2023-12-04T06:42:18;100554.72;;;0.17;65.00
84049;BME280;74136;51.684;7.862;2023-12-04T06:44:43;100548.13;;;0.19;64.01
84049;BME280;74136;51.684;7.862;2023-12-04T06:47:09;100557.94;;;0.20;63.97
84049;BME280;74136;51.684;7.862;2023-12-04T06:49:37;100547.13;;;0.20;64.10
84049;BME280;74136;51.684;7.862;2023-12-04T06:52:03;100549.47;;;0.23;63.81
84049;BME280;74136;51.684;7.862;2023-12-04T06:54:29;100546.94;;;0.30;62.57
84049;BME280;74136;51.684;7.862;2023-12-04T06:56:54;100539.50;;;0.32;63.92
84049;BME280;74136;51.684;7.862;2023-12-04T06:59:20;100540.81;;;0.36;62.60
84049;BME280;74136;51.684;7.862;2023-12-04T07:01:46;100530.34;;;0.41;62.92
84049;BME280;74136;51.684;7.862;2023-12-04T07:04:11;100527.97;;;0.38;62.97
84049;BME280;74136;51.684;7.862;2023-12-04T07:06:37;100524.59;;;0.36;63.55
84049;BME280;74136;51.684;7.862;2023-12-04T07:09:03;100521.88;;;0.44;62.04
84049;BME280;74136;51.684;7.862;2023-12-04T07:11:28;100519.81;;;0.46;62.58
84049;BME280;74136;51.684;7.862;2023-12-04T07:13:54;100524.59;;;0.44;61.38
84049;BME280;74136;51.684;7.862;2023-12-04T07:16:19;100518.97;;;0.46;63.10
84049;BME280;74136;51.684;7.862;2023-12-04T07:18:45;100506.28;;;0.46;62.34
84049;BME280;74136;51.684;7.862;2023-12-04T07:21:10;100501.88;;;0.45;61.95
84049;BME280;74136;51.684;7.862;2023-12-04T07:23:36;100511.06;;;0.44;61.50
84049;BME280;74136;51.684;7.862;2023-12-04T07:26:01;100503.94;;;0.43;61.86
84049;BME280;74136;51.684;7.862;2023-12-04T07:28:27;100504.13;;;0.42;63.18
84049;BME280;74136;51.684;7.862;2023-12-04T07:30:54;100502.44;;;0.41;64.14
84049;BME280;74136;51.684;7.862;2023-12-04T07:33:20;100509.69;;;0.40;62.54
84049;BME280;74136;51.684;7.862;2023-12-04T07:35:45;100497.19;;;0.39;62.67
84049;BME280;74136;51.684;7.862;2023-12-04T07:38:11;100498.38;;;0.36;62.95
84049;BME280;74136;51.684;7.862;2023-12-04T07:40:36;100491.63;;;0.32;64.14
84049;BME280;74136;51.684;7.862;2023-12-04T07:43:02;100494.50;;;0.31;62.76
84049;BME280;74136;51.684;7.862;2023-12-04T07:45:27;100491.63;;;0.32;62.57
84049;BME280;74136;51.684;7.862;2023-12-04T07:47:53;100488.38;;;0.37;62.13
84049;BME280;74136;51.684;7.862;2023-12-04T07:50:19;100486.16;;;0.49;60.88
84049;BME280;74136;51.684;7.862;2023-12-04T07:52:44;100486.28;;;0.55;61.62
84049;BME280;74136;51.684;7.862;2023-12-04T07:55:09;100476.97;;;0.58;61.24
84049;BME280;74136;51.684;7.862;2023-12-04T07:57:35;100473.09;;;0.60;61.70
84049;BME280;74136;51.684;7.862;2023-12-04T08:00:00;100465.13;;;0.59;61.41
84049;BME280;74136;51.684;7.862;2023-12-04T08:02:26;100462.06;;;0.62;61.68
84049;BME280;74136;51.684;7.862;2023-12-04T08:04:51;100459.88;;;0.65;60.25
84049;BME280;74136;51.684;7.862;2023-12-04T08:07:17;100460.91;;;0.64;61.42
84049;BME280;74136;51.684;7.862;2023-12-04T08:09:42;100456.13;;;0.66;61.04
84049;BME280;74136;51.684;7.862;2023-12-04T08:12:07;100446.28;;;0.73;59.78
84049;BME280;74136;51.684;7.862;2023-12-04T08:14:34;100439.69;;;0.76;59.89
84049;BME280;74136;51.684;7.862;2023-12-04T08:16:59;100443.88;;;0.79;59.80
84049;BME280;74136;51.684;7.862;2023-12-04T08:19:24;100448.09;;;0.81;59.07
84049;BME280;74136;51.684;7.862;2023-12-04T08:21:50;100441.31;;;0.85;59.61
84049;BME280;74136;51.684;7.862;2023-12-04T08:24:15;100435.06;;;0.85;60.09
84049;BME280;74136;51.684;7.862;2023-12-04T08:26:44;100433.66;;;0.89;59.08
84049;BME280;74136;51.684;7.862;2023-12-04T08:29:09;100438.22;;;0.96;59.53
84049;BME280;74136;51.684;7.862;2023-12-04T08:31:34;100436.63;;;1.02;58.31
84049;BME280;74136;51.684;7.862;2023-12-04T08:34:00;100431.88;;;1.04;58.95
84049;BME280;74136;51.684;7.862;2023-12-04T08:36:25;100428.47;;;1.10;57.81
84049;BME280;74136;51.684;7.862;2023-12-04T09:57:10;100382.50;;;1.39;58.61
84049;BME280;74136;51.684;7.862;2023-12-04T09:59:35;100380.06;;;1.44;59.10
84049;BME280;74136;51.684;7.862;2023-12-04T10:02:01;100373.63;;;1.45;57.46
84049;BME280;74136;51.684;7.862;2023-12-04T10:04:26;100365.97;;;1.49;57.76
84049;BME280;74136;51.684;7.862;2023-12-04T10:06:52;100367.13;;;1.55;58.51
84049;BME280;74136;51.684;7.862;2023-12-04T10:09:18;100358.16;;;1.54;58.34
84049;BME280;74136;51.684;7.862;2023-12-04T10:11:47;100359.44;;;1.58;58.85
84049;BME280;74136;51.684;7.862;2023-12-04T10:14:15;100351.31;;;1.58;57.57
84049;BME280;74136;51.684;7.862;2023-12-04T10:16:42;100336.06;;;1.57;56.30
84049;BME280;74136;51.684;7.862;2023-12-04T10:19:24;100340.00;;;1.55;56.49
84049;BME280;74136;51.684;7.862;2023-12-04T10:22:03;100330.66;;;1.57;57.61
84049;BME280;74136;51.684;7.862;2023-12-04T10:24:36;100325.63;;;1.54;57.70
84049;BME280;74136;51.684;7.862;2023-12-04T10:27:03;100324.38;;;1.57;57.10
84049;BME280;74136;51.684;7.862;2023-12-04T10:29:48;100314.38;;;1.57;56.71
84049;BME280;74136;51.684;7.862;2023-12-04T10:32:17;100308.28;;;1.55;57.71
84049;BME280;74136;51.684;7.862;2023-12-04T10:34:43;100295.56;;;1.56;56.30
84049;BME280;74136;51.684;7.862;2023-12-04T10:37:09;100300.81;;;1.57;55.88
84049;BME280;74136;51.684;7.862;2023-12-04T10:39:49;100298.94;;;1.58;57.56
84049;BME280;74136;51.684;7.862;2023-12-04T10:42:27;100291.84;;;1.57;56.78
84049;BME280;74136;51.684;7.862;2023-12-04T10:44:57;100293.53;;;1.58;57.05
84049;BME280;74136;51.684;7.862;2023-12-04T10:47:23;100284.53;;;1.57;57.25
84049;BME280;74136;51.684;7.862;2023-12-04T10:49:49;100293.69;;;1.56;58.33
84049;BME280;74136;51.684;7.862;2023-12-04T10:52:14;100291.19;;;1.55;58.37
84049;BME280;74136;51.684;7.862;2023-12-04T10:54:40;100292.00;;;1.55;58.04
84049;BME280;74136;51.684;7.862;2023-12-04T10:57:08;100280.16;;;1.56;57.46
84049;BME280;74136;51.684;7.862;2023-12-04T10:59:39;100280.81;;;1.58;57.75
84049;BME280;74136;51.684;7.862;2023-12-04T11:02:06;100266.03;;;1.61;58.50
84049;BME280;74136;51.684;7.862;2023-12-04T11:04:35;100275.50;;;1.65;57.44
84049;BME280;74136;51.684;7.862;2023-12-04T11:07:02;100274.25;;;1.67;56.92
84049;BME280;74136;51.684;7.862;2023-12-04T11:09:29;100271.72;;;1.66;57.41
84049;BME280;74136;51.684;7.862;2023-12-04T11:11:59;100271.53;;;1.67;57.85
84049;BME280;74136;51.684;7.862;2023-12-04T11:14:33;100265.28;;;1.67;57.79
84049;BME280;74136;51.684;7.862;2023-12-04T11:17:04;100262.38;;;1.68;57.26
84049;BME280;74136;51.684;7.862;2023-12-04T11:21:58;100248.53;;;1.78;56.85
84049;BME280;74136;51.684;7.862;2023-12-04T11:24:24;100249.47;;;1.85;57.57
84049;BME280;74136;51.684;7.862;2023-12-04T11:26:49;100245.34;;;1.89;56.36
84049;BME280;74136;51.684;7.862;2023-12-04T11:29:15;100241.22;;;1.93;56.84
84049;BME280;74136;51.684;7.862;2023-12-04T11:31:42;100242.13;;;2.00;56.11
84049;BME280;74136;51.684;7.862;2023-12-04T11:34:08;100229.88;;;2.04;55.48
84049;BME280;74136;51.684;7.862;2023-12-04T11:36:35;100219.88;;;2.05;56.07
84049;BME280;74136;51.684;7.862;2023-12-04T11:39:01;100214.25;;;2.06;57.31
84049;BME280;74136;51.684;7.862;2023-12-04T11:41:26;100214.44;;;2.05;57.61
84049;BME280;74136;51.684;7.862;2023-12-04T11:43:52;100214.25;;;2.06;58.02
84049;BME280;74136;51.684;7.862;2023-12-04T11:46:21;100211.97;;;2.10;56.97
84049;BME280;74136;51.684;7.862;2023-12-04T11:48:51;100204.31;;;2.13;57.77
84049;BME280;74136;51.684;7.862;2023-12-04T11:54:08;100207.03;;;2.13;56.41
84049;BME280;74136;51.684;7.862;2023-12-04T11:56:34;100198.50;;;2.16;57.30
84049;BME280;74136;51.684;7.862;2023-12-04T11:59:03;100196.53;;;2.10;57.46
84049;BME280;74136;51.684;7.862;2023-12-04T12:01:33;100191.41;;;2.15;57.00
84049;BME280;74136;51.684;7.862;2023-12-04T12:03:59;100180.06;;;2.12;56.99
84049;BME280;74136;51.684;7.862;2023-12-04T12:06:24;100191.03;;;2.18;57.53
84049;BME280;74136;51.684;7.862;2023-12-04T12:08:50;100187.06;;;2.21;57.97
84049;BME280;74136;51.684;7.862;2023-12-04T12:11:16;100201.09;;;2.25;58.85
84049;BME280;74136;51.684;7.862;2023-12-04T12:13:42;100197.34;;;2.26;58.16
84049;BME280;74136;51.684;7.862;2023-12-04T12:16:07;100200.91;;;2.26;60.06
84049;BME280;74136;51.684;7.862;2023-12-04T12:18:36;100182.75;;;2.27;58.95
84049;BME280;74136;51.684;7.862;2023-12-04T12:21:01;100177.13;;;2.28;57.82
84049;BME280;74136;51.684;7.862;2023-12-04T12:23:27;100169.53;;;2.24;58.29
84049;BME280;74136;51.684;7.862;2023-12-04T12:25:52;100170.84;;;2.28;59.51
84049;BME280;74136;51.684;7.862;2023-12-04T12:28:18;100167.47;;;2.26;58.35
84049;BME280;74136;51.684;7.862;2023-12-04T12:30:44;100168.31;;;2.26;60.41
84049;BME280;74136;51.684;7.862;2023-12-04T12:33:13;100158.88;;;2.22;58.15
84049;BME280;74136;51.684;7.862;2023-12-04T12:35:39;100158.88;;;2.22;61.03
84049;BME280;74136;51.684;7.862;2023-12-04T12:38:04;100158.69;;;2.24;61.27
84049;BME280;74136;51.684;7.862;2023-12-04T12:40:30;100154.69;;;2.19;60.32
84049;BME280;74136;51.684;7.862;2023-12-04T12:43:09;100163.22;;;2.16;61.72
84049;BME280;74136;51.684;7.862;2023-12-04T12:45:43;100162.56;;;2.14;62.74
84049;BME280;74136;51.684;7.862;2023-12-04T12:48:13;100155.25;;;2.15;62.28
84049;BME280;74136;51.684;7.862;2023-12-04T12:50:38;100154.44;;;2.14;61.97
84049;BME280;74136;51.684;7.862;2023-12-04T12:53:04;100153.78;;;2.12;62.65
84049;BME280;74136;51.684;7.862;2023-12-04T12:55:29;100145.81;;;2.11;62.75
84049;BME280;74136;51.684;7.862;2023-12-04T12:57:58;100151.47;;;2.09;61.86
84049;BME280;74136;51.684;7.862;2023-12-04T13:00:23;100143.31;;;2.09;60.94
84049;BME280;74136;51.684;7.862;2023-12-04T13:02:52;100137.91;;;2.09;60.77
84049;BME280;74136;51.684;7.862;2023-12-04T13:05:17;100131.03;;;2.13;61.22
84049;BME280;74136;51.684;7.862;2023-12-04T13:07:44;100134.19;;;2.17;61.33
84049;BME280;74136;51.684;7.862;2023-12-04T13:10:10;100127.34;;;2.21;63.06
84049;BME280;74136;51.684;7.862;2023-12-04T13:12:36;100113.56;;;2.23;62.60
84049;BME280;74136;51.684;7.862;2023-12-04T13:15:02;100119.28;;;2.28;62.61
84049;BME280;74136;51.684;7.862;2023-12-04T13:17:28;100102.59;;;2.31;63.28
84049;BME280;74136;51.684;7.862;2023-12-04T13:19:54;100100.31;;;2.34;62.55
84049;BME280;74136;51.684;7.862;2023-12-04T13:22:19;100093.28;;;2.40;63.58
84049;BME280;74136;51.684;7.862;2023-12-04T13:24:45;100087.59;;;2.35;63.19
84049;BME280;74136;51.684;7.862;2023-12-04T13:27:10;100080.66;;;2.32;63.75
84049;BME280;74136;51.684;7.862;2023-12-04T13:29:36;100078.16;;;2.31;63.26
84049;BME280;74136;51.684;7.862;2023-12-04T13:32:02;100072.31;;;2.34;64.07
84049;BME280;74136;51.684;7.862;2023-12-04T13:34:28;100064.19;;;2.34;64.00
84049;BME280;74136;51.684;7.862;2023-12-04T13:36:53;100062.06;;;2.29;63.99
84049;BME280;74136;51.684;7.862;2023-12-04T13:39:19;100070.59;;;2.26;63.29
84049;BME280;74136;51.684;7.862;2023-12-04T13:41:52;100068.06;;;2.25;64.58
84049;BME280;74136;51.684;7.862;2023-12-04T13:44:36;100071.41;;;2.20;64.25
84049;BME280;74136;51.684;7.862;2023-12-04T13:47:02;100066.34;;;2.17;65.28
84049;BME280;74136;51.684;7.862;2023-12-04T13:49:28;100062.13;;;2.14;65.54
84049;BME280;74136;51.684;7.862;2023-12-04T13:51:53;100065.66;;;2.08;64.75
84049;BME280;74136;51.684;7.862;2023-12-04T13:54:20;100057.44;;;2.02;64.13
84049;BME280;74136;51.684;7.862;2023-12-04T13:56:49;100062.63;;;1.97;64.09
84049;BME280;74136;51.684;7.862;2023-12-04T13:59:19;100060.09;;;1.95;64.57
84049;BME280;74136;51.684;7.862;2023-12-04T14:01:45;100050.66;;;1.91;65.40
84049;BME280;74136;51.684;7.862;2023-12-04T14:04:12;100041.63;;;1.84;65.35
84049;BME280;74136;51.684;7.862;2023-12-04T14:06:37;100039.28;;;1.81;65.74
84049;BME280;74136;51.684;7.862;2023-12-04T14:09:03;100039.88;;;1.76;66.76
84049;BME280;74136;51.684;7.862;2023-12-04T14:11:36;100036.06;;;1.71;66.91
84049;BME280;74136;51.684;7.862;2023-12-04T14:14:01;100033.53;;;1.69;66.64
84049;BME280;74136;51.684;7.862;2023-12-04T14:16:27;100032.25;;;1.65;66.58
84049;BME280;74136;51.684;7.862;2023-12-04T14:18:52;100026.56;;;1.60;67.61